sensor_id;sensor_type;location;lat;lon;timestamp;P1;durP1;ratioP1;P2;durP2;ratioP2
25952;SDS011;13750;50.804;8.764;2023-07-30T00:01:24;1.30;;;1.20;;
25952;SDS011;13750;50.804;8.764;2023-07-30T00:03:49;1.60;;;1.30;;
25952;SDS011;13750;50.804;8.764;2023-07-30T00:06:15;1.30;;;1.03;;
25952;SDS011;13750;50.804;8.764;2023-07-30T00:08:40;1.00;;;0.93;;
25952;SDS011;13750;50.804;8.764;2023-07-30T00:11:06;2.10;;;1.90;;
25952;SDS011;13750;50.804;8.764;2023-07-30T00:13:31;1.73;;;1.60;;
25952;SDS011;13750;50.804;8.764;2023-07-30T00:15:57;1.57;;;1.40;;
25952;SDS011;13750;50.804;8.764;2023-07-30T00:18:23;1.87;;;1.73;;
25952;SDS011;13750;50.804;8.764;2023-07-30T00:20:48;1.93;;;1.50;;
25952;SDS011;13750;50.804;8.764;2023-07-30T00:23:14;2.07;;;1.40;;
25952;SDS011;13750;50.804;8.764;2023-07-30T00:25:39;1.10;;;1.00;;
25952;SDS011;13750;50.804;8.764;2023-07-30T00:28:05;1.40;;;1.30;;
25952;SDS011;13750;50.804;8.764;2023-07-30T00:30:30;1.87;;;1.20;;
25952;SDS011;13750;50.804;8.764;2023-07-30T00:32:56;1.10;;;1.00;;
25952;SDS011;13750;50.804;8.764;2023-07-30T00:35:21;1.70;;;1.30;;
25952;SDS011;13750;50.804;8.764;2023-07-30T00:37:47;1.93;;;1.73;;
25952;SDS011;13750;50.804;8.764;2023-07-30T00:40:13;2.47;;;2.00;;
25952;SDS011;13750;50.804;8.764;2023-07-30T00:42:38;2.30;;;1.30;;
25952;SDS011;13750;50.804;8.764;2023-07-30T00:45:04;1.93;;;1.73;;
25952;SDS011;13750;50.804;8.764;2023-07-30T00:47:30;1.65;;;1.52;;
25952;SDS011;13750;50.804;8.764;2023-07-30T00:49:56;1.42;;;1.30;;
25952;SDS011;13750;50.804;8.764;2023-07-30T00:52:23;1.60;;;1.20;;
25952;SDS011;13750;50.804;8.764;2023-07-30T00:54:50;1.35;;;1.17;;
25952;SDS011;13750;50.804;8.764;2023-07-30T00:57:17;1.88;;;1.40;;
25952;SDS011;13750;50.804;8.764;2023-07-30T00:59:44;4.00;;;1.42;;
25952;SDS011;13750;50.804;8.764;2023-07-30T01:02:11;1.25;;;1.15;;
25952;SDS011;13750;50.804;8.764;2023-07-30T01:04:37;2.07;;;1.60;;
25952;SDS011;13750;50.804;8.764;2023-07-30T01:07:04;1.20;;;1.10;;
25952;SDS011;13750;50.804;8.764;2023-07-30T01:09:31;1.40;;;1.20;;
25952;SDS011;13750;50.804;8.764;2023-07-30T01:11:57;1.00;;;0.90;;
25952;SDS011;13750;50.804;8.764;2023-07-30T01:14:24;1.25;;;1.00;;
25952;SDS011;13750;50.804;8.764;2023-07-30T01:16:53;1.50;;;1.20;;
25952;SDS011;13750;50.804;8.764;2023-07-30T01:19:19;1.63;;;1.15;;
25952;SDS011;13750;50.804;8.764;2023-07-30T01:21:44;1.07;;;0.97;;
25952;SDS011;13750;50.804;8.764;2023-07-30T01:24:10;1.20;;;1.10;;
25952;SDS011;13750;50.804;8.764;2023-07-30T01:26:40;1.00;;;0.90;;
25952;SDS011;13750;50.804;8.764;2023-07-30T01:29:10;1.30;;;1.10;;
25952;SDS011;13750;50.804;8.764;2023-07-30T01:31:40;1.13;;;1.02;;
25952;SDS011;13750;50.804;8.764;2023-07-30T01:36:33;1.20;;;1.10;;
25952;SDS011;13750;50.804;8.764;2023-07-30T01:39:00;1.23;;;1.00;;
25952;SDS011;13750;50.804;8.764;2023-07-30T01:41:26;1.50;;;1.40;;
25952;SDS011;13750;50.804;8.764;2023-07-30T01:43:53;1.40;;;1.30;;
25952;SDS011;13750;50.804;8.764;2023-07-30T01:46:18;1.45;;;1.25;;
25952;SDS011;13750;50.804;8.764;2023-07-30T01:48:44;2.30;;;1.50;;
25952;SDS011;13750;50.804;8.764;2023-07-30T01:51:10;2.33;;;1.87;;
25952;SDS011;13750;50.804;8.764;2023-07-30T01:53:35;2.40;;;1.97;;
25952;SDS011;13750;50.804;8.764;2023-07-30T01:56:01;1.90;;;1.80;;
25952;SDS011;13750;50.804;8.764;2023-07-30T01:58:26;2.27;;;1.97;;
25952;SDS011;13750;50.804;8.764;2023-07-30T02:00:52;1.50;;;1.40;;
25952;SDS011;13750;50.804;8.764;2023-07-30T02:03:17;2.00;;;1.40;;
25952;SDS011;13750;50.804;8.764;2023-07-30T02:05:43;1.20;;;1.10;;
25952;SDS011;13750;50.804;8.764;2023-07-30T02:08:08;1.87;;;1.67;;
25952;SDS011;13750;50.804;8.764;2023-07-30T02:10:34;3.10;;;1.70;;
25952;SDS011;13750;50.804;8.764;2023-07-30T02:12:59;2.97;;;2.37;;
25952;SDS011;13750;50.804;8.764;2023-07-30T02:15:25;2.10;;;1.60;;
25952;SDS011;13750;50.804;8.764;2023-07-30T02:17:50;1.90;;;1.60;;
25952;SDS011;13750;50.804;8.764;2023-07-30T02:20:16;2.13;;;1.90;;
25952;SDS011;13750;50.804;8.764;2023-07-30T02:22:41;1.77;;;1.40;;
25952;SDS011;13750;50.804;8.764;2023-07-30T02:25:07;1.97;;;1.60;;
25952;SDS011;13750;50.804;8.764;2023-07-30T02:27:33;1.70;;;1.60;;
25952;SDS011;13750;50.804;8.764;2023-07-30T02:29:58;1.30;;;1.17;;
25952;SDS011;13750;50.804;8.764;2023-07-30T02:32:24;1.80;;;1.60;;
25952;SDS011;13750;50.804;8.764;2023-07-30T02:34:49;1.20;;;1.07;;
25952;SDS011;13750;50.804;8.764;2023-07-30T02:37:15;1.67;;;1.30;;
25952;SDS011;13750;50.804;8.764;2023-07-30T02:39:40;1.50;;;1.20;;
25952;SDS011;13750;50.804;8.764;2023-07-30T02:42:06;1.53;;;1.23;;
25952;SDS011;13750;50.804;8.764;2023-07-30T02:44:31;1.20;;;1.10;;
25952;SDS011;13750;50.804;8.764;2023-07-30T02:46:57;1.60;;;1.20;;
25952;SDS011;13750;50.804;8.764;2023-07-30T02:49:22;1.37;;;1.17;;
25952;SDS011;13750;50.804;8.764;2023-07-30T02:51:48;1.73;;;1.50;;
25952;SDS011;13750;50.804;8.764;2023-07-30T02:54:14;1.63;;;1.37;;
25952;SDS011;13750;50.804;8.764;2023-07-30T02:56:41;2.60;;;1.55;;
25952;SDS011;13750;50.804;8.764;2023-07-30T03:01:33;1.52;;;1.30;;
25952;SDS011;13750;50.804;8.764;2023-07-30T03:03:59;1.80;;;1.60;;
25952;SDS011;13750;50.804;8.764;2023-07-30T03:06:24;2.50;;;1.40;;
25952;SDS011;13750;50.804;8.764;2023-07-30T03:08:50;1.53;;;0.90;;
25952;SDS011;13750;50.804;8.764;2023-07-30T03:11:15;1.40;;;1.30;;
25952;SDS011;13750;50.804;8.764;2023-07-30T03:13:41;1.43;;;1.10;;
25952;SDS011;13750;50.804;8.764;2023-07-30T03:16:06;1.60;;;1.20;;
25952;SDS011;13750;50.804;8.764;2023-07-30T03:18:32;1.30;;;1.10;;
25952;SDS011;13750;50.804;8.764;2023-07-30T03:20:58;1.30;;;1.17;;
25952;SDS011;13750;50.804;8.764;2023-07-30T03:23:25;1.13;;;1.02;;
25952;SDS011;13750;50.804;8.764;2023-07-30T03:25:51;1.10;;;1.00;;
25952;SDS011;13750;50.804;8.764;2023-07-30T03:28:16;1.40;;;1.13;;
25952;SDS011;13750;50.804;8.764;2023-07-30T03:30:42;1.40;;;1.30;;
25952;SDS011;13750;50.804;8.764;2023-07-30T03:33:07;1.43;;;1.27;;
25952;SDS011;13750;50.804;8.764;2023-07-30T03:35:33;1.50;;;1.10;;
25952;SDS011;13750;50.804;8.764;2023-07-30T03:37:58;1.00;;;0.90;;
25952;SDS011;13750;50.804;8.764;2023-07-30T03:40:24;0.90;;;0.90;;
25952;SDS011;13750;50.804;8.764;2023-07-30T03:42:49;1.20;;;0.80;;
25952;SDS011;13750;50.804;8.764;2023-07-30T03:45:15;1.10;;;0.90;;
25952;SDS011;13750;50.804;8.764;2023-07-30T03:47:40;1.23;;;1.00;;
25952;SDS011;13750;50.804;8.764;2023-07-30T03:50:06;0.80;;;0.80;;
25952;SDS011;13750;50.804;8.764;2023-07-30T03:52:32;1.10;;;1.00;;
25952;SDS011;13750;50.804;8.764;2023-07-30T03:54:57;1.03;;;0.80;;
25952;SDS011;13750;50.804;8.764;2023-07-30T03:57:23;0.80;;;0.80;;
25952;SDS011;13750;50.804;8.764;2023-07-30T03:59:48;2.80;;;1.20;;
25952;SDS011;13750;50.804;8.764;2023-07-30T04:02:14;1.40;;;1.30;;
25952;SDS011;13750;50.804;8.764;2023-07-30T04:04:41;1.30;;;1.20;;
25952;SDS011;13750;50.804;8.764;2023-07-30T04:07:09;1.27;;;1.17;;
25952;SDS011;13750;50.804;8.764;2023-07-30T04:09:35;1.30;;;1.20;;
25952;SDS011;13750;50.804;8.764;2023-07-30T04:12:00;0.90;;;0.80;;
25952;SDS011;13750;50.804;8.764;2023-07-30T04:14:26;2.37;;;1.87;;
25952;SDS011;13750;50.804;8.764;2023-07-30T04:16:52;1.90;;;1.43;;
25952;SDS011;13750;50.804;8.764;2023-07-30T04:19:17;2.17;;;1.47;;
25952;SDS011;13750;50.804;8.764;2023-07-30T04:21:43;1.20;;;1.10;;
25952;SDS011;13750;50.804;8.764;2023-07-30T04:24:08;1.70;;;1.20;;
25952;SDS011;13750;50.804;8.764;2023-07-30T04:26:34;0.80;;;0.80;;
25952;SDS011;13750;50.804;8.764;2023-07-30T04:28:59;1.30;;;1.20;;
25952;SDS011;13750;50.804;8.764;2023-07-30T04:31:25;1.50;;;1.40;;
25952;SDS011;13750;50.804;8.764;2023-07-30T04:33:50;1.27;;;1.17;;
25952;SDS011;13750;50.804;8.764;2023-07-30T04:36:16;1.70;;;1.57;;
25952;SDS011;13750;50.804;8.764;2023-07-30T04:38:42;2.23;;;2.03;;
25952;SDS011;13750;50.804;8.764;2023-07-30T04:41:07;2.27;;;1.90;;
25952;SDS011;13750;50.804;8.764;2023-07-30T04:43:33;1.67;;;1.47;;
25952;SDS011;13750;50.804;8.764;2023-07-30T04:45:58;1.43;;;1.33;;
25952;SDS011;13750;50.804;8.764;2023-07-30T04:48:24;1.40;;;1.30;;
25952;SDS011;13750;50.804;8.764;2023-07-30T04:50:49;1.63;;;1.47;;
25952;SDS011;13750;50.804;8.764;2023-07-30T04:53:15;1.63;;;1.40;;
25952;SDS011;13750;50.804;8.764;2023-07-30T04:58:07;2.72;;;2.15;;
25952;SDS011;13750;50.804;8.764;2023-07-30T05:00:32;2.77;;;1.77;;
25952;SDS011;13750;50.804;8.764;2023-07-30T05:02:58;2.20;;;2.00;;
25952;SDS011;13750;50.804;8.764;2023-07-30T05:05:24;1.70;;;1.60;;
25952;SDS011;13750;50.804;8.764;2023-07-30T05:07:49;2.20;;;1.90;;
25952;SDS011;13750;50.804;8.764;2023-07-30T05:10:15;2.00;;;1.80;;
25952;SDS011;13750;50.804;8.764;2023-07-30T05:12:41;2.03;;;1.73;;
25952;SDS011;13750;50.804;8.764;2023-07-30T05:15:06;2.10;;;1.77;;
25952;SDS011;13750;50.804;8.764;2023-07-30T05:17:32;3.00;;;2.70;;
25952;SDS011;13750;50.804;8.764;2023-07-30T05:19:58;3.40;;;2.83;;
25952;SDS011;13750;50.804;8.764;2023-07-30T05:22:24;2.73;;;2.37;;
25952;SDS011;13750;50.804;8.764;2023-07-30T05:24:50;2.25;;;2.05;;
25952;SDS011;13750;50.804;8.764;2023-07-30T05:27:16;2.40;;;2.20;;
25952;SDS011;13750;50.804;8.764;2023-07-30T05:29:41;2.07;;;1.77;;
25952;SDS011;13750;50.804;8.764;2023-07-30T05:32:07;1.90;;;1.70;;
25952;SDS011;13750;50.804;8.764;2023-07-30T05:34:33;2.03;;;1.80;;
25952;SDS011;13750;50.804;8.764;2023-07-30T05:36:59;1.57;;;1.47;;
25952;SDS011;13750;50.804;8.764;2023-07-30T05:39:24;1.80;;;1.53;;
25952;SDS011;13750;50.804;8.764;2023-07-30T05:41:51;2.03;;;1.45;;
25952;SDS011;13750;50.804;8.764;2023-07-30T05:44:16;1.10;;;1.00;;
25952;SDS011;13750;50.804;8.764;2023-07-30T05:46:42;2.10;;;1.27;;
25952;SDS011;13750;50.804;8.764;2023-07-30T05:49:08;1.57;;;1.47;;
25952;SDS011;13750;50.804;8.764;2023-07-30T05:51:33;1.30;;;1.20;;
25952;SDS011;13750;50.804;8.764;2023-07-30T05:53:59;1.40;;;1.20;;
25952;SDS011;13750;50.804;8.764;2023-07-30T05:56:25;1.17;;;1.07;;
25952;SDS011;13750;50.804;8.764;2023-07-30T05:58:50;1.10;;;1.00;;
25952;SDS011;13750;50.804;8.764;2023-07-30T06:01:16;1.13;;;1.03;;
25952;SDS011;13750;50.804;8.764;2023-07-30T06:03:42;2.22;;;1.00;;
25952;SDS011;13750;50.804;8.764;2023-07-30T06:06:07;2.10;;;1.10;;
25952;SDS011;13750;50.804;8.764;2023-07-30T06:08:33;1.10;;;1.00;;
25952;SDS011;13750;50.804;8.764;2023-07-30T06:11:02;1.23;;;1.00;;
25952;SDS011;13750;50.804;8.764;2023-07-30T06:13:28;1.13;;;1.00;;
25952;SDS011;13750;50.804;8.764;2023-07-30T06:15:54;1.48;;;1.13;;
25952;SDS011;13750;50.804;8.764;2023-07-30T06:18:20;1.00;;;0.90;;
25952;SDS011;13750;50.804;8.764;2023-07-30T06:20:46;1.00;;;0.80;;
25952;SDS011;13750;50.804;8.764;2023-07-30T06:23:11;1.07;;;0.90;;
25952;SDS011;13750;50.804;8.764;2023-07-30T06:25:37;0.73;;;0.70;;
25952;SDS011;13750;50.804;8.764;2023-07-30T06:28:04;0.80;;;0.70;;
25952;SDS011;13750;50.804;8.764;2023-07-30T06:30:29;0.85;;;0.75;;
25952;SDS011;13750;50.804;8.764;2023-07-30T06:32:56;1.60;;;1.00;;
25952;SDS011;13750;50.804;8.764;2023-07-30T06:35:22;1.50;;;0.60;;
25952;SDS011;13750;50.804;8.764;2023-07-30T06:37:48;1.03;;;0.80;;
25952;SDS011;13750;50.804;8.764;2023-07-30T06:40:13;1.00;;;0.90;;
25952;SDS011;13750;50.804;8.764;2023-07-30T06:42:39;1.87;;;1.03;;
25952;SDS011;13750;50.804;8.764;2023-07-30T06:45:04;3.40;;;1.53;;
25952;SDS011;13750;50.804;8.764;2023-07-30T06:47:30;2.72;;;1.52;;
25952;SDS011;13750;50.804;8.764;2023-07-30T06:49:56;1.03;;;0.90;;
25952;SDS011;13750;50.804;8.764;2023-07-30T06:52:21;1.50;;;1.00;;
25952;SDS011;13750;50.804;8.764;2023-07-30T06:54:47;0.80;;;0.70;;
25952;SDS011;13750;50.804;8.764;2023-07-30T06:57:12;1.00;;;0.87;;
25952;SDS011;13750;50.804;8.764;2023-07-30T06:59:38;1.20;;;1.10;;
25952;SDS011;13750;50.804;8.764;2023-07-30T07:02:03;1.03;;;0.97;;
25952;SDS011;13750;50.804;8.764;2023-07-30T07:06:56;1.35;;;1.10;;
25952;SDS011;13750;50.804;8.764;2023-07-30T07:09:21;2.47;;;1.40;;
25952;SDS011;13750;50.804;8.764;2023-07-30T07:11:47;2.10;;;1.27;;
25952;SDS011;13750;50.804;8.764;2023-07-30T07:14:13;3.87;;;1.33;;
25952;SDS011;13750;50.804;8.764;2023-07-30T07:16:38;1.60;;;1.10;;
25952;SDS011;13750;50.804;8.764;2023-07-30T07:19:04;1.67;;;0.90;;
25952;SDS011;13750;50.804;8.764;2023-07-30T07:21:30;1.23;;;0.85;;
25952;SDS011;13750;50.804;8.764;2023-07-30T07:23:55;2.13;;;1.33;;
25952;SDS011;13750;50.804;8.764;2023-07-30T07:26:21;3.43;;;1.10;;
25952;SDS011;13750;50.804;8.764;2023-07-30T07:28:46;1.57;;;1.10;;
25952;SDS011;13750;50.804;8.764;2023-07-30T07:31:12;1.77;;;1.47;;
25952;SDS011;13750;50.804;8.764;2023-07-30T07:33:37;2.00;;;0.93;;
25952;SDS011;13750;50.804;8.764;2023-07-30T07:36:05;2.67;;;1.52;;
25952;SDS011;13750;50.804;8.764;2023-07-30T07:38:32;3.88;;;1.67;;
25952;SDS011;13750;50.804;8.764;2023-07-30T07:40:58;1.98;;;1.08;;
25952;SDS011;13750;50.804;8.764;2023-07-30T07:43:25;1.95;;;1.23;;
25952;SDS011;13750;50.804;8.764;2023-07-30T07:45:51;1.17;;;1.08;;
25952;SDS011;13750;50.804;8.764;2023-07-30T07:48:16;3.13;;;1.50;;
25952;SDS011;13750;50.804;8.764;2023-07-30T07:50:42;1.73;;;1.30;;
25952;SDS011;13750;50.804;8.764;2023-07-30T07:53:08;1.40;;;1.17;;
25952;SDS011;13750;50.804;8.764;2023-07-30T07:55:33;2.30;;;1.40;;
25952;SDS011;13750;50.804;8.764;2023-07-30T07:57:59;1.30;;;1.20;;
25952;SDS011;13750;50.804;8.764;2023-07-30T08:00:24;1.17;;;1.07;;
25952;SDS011;13750;50.804;8.764;2023-07-30T08:02:50;2.47;;;1.47;;
25952;SDS011;13750;50.804;8.764;2023-07-30T08:05:15;1.83;;;1.30;;
25952;SDS011;13750;50.804;8.764;2023-07-30T08:07:41;1.53;;;1.00;;
25952;SDS011;13750;50.804;8.764;2023-07-30T08:10:09;1.77;;;1.17;;
25952;SDS011;13750;50.804;8.764;2023-07-30T08:12:36;1.90;;;0.98;;
25952;SDS011;13750;50.804;8.764;2023-07-30T08:15:01;2.20;;;1.10;;
25952;SDS011;13750;50.804;8.764;2023-07-30T08:17:27;1.03;;;0.90;;
25952;SDS011;13750;50.804;8.764;2023-07-30T08:19:52;1.00;;;0.90;;
25952;SDS011;13750;50.804;8.764;2023-07-30T08:22:18;1.53;;;1.10;;
25952;SDS011;13750;50.804;8.764;2023-07-30T08:24:43;2.10;;;1.00;;
25952;SDS011;13750;50.804;8.764;2023-07-30T08:27:09;1.77;;;1.63;;
25952;SDS011;13750;50.804;8.764;2023-07-30T08:29:34;1.77;;;0.90;;
25952;SDS011;13750;50.804;8.764;2023-07-30T08:32:00;1.87;;;1.20;;
25952;SDS011;13750;50.804;8.764;2023-07-30T08:34:26;1.50;;;1.27;;
25952;SDS011;13750;50.804;8.764;2023-07-30T08:36:51;1.90;;;1.00;;
25952;SDS011;13750;50.804;8.764;2023-07-30T08:39:17;1.80;;;1.00;;
25952;SDS011;13750;50.804;8.764;2023-07-30T08:41:43;1.10;;;0.90;;
25952;SDS011;13750;50.804;8.764;2023-07-30T08:44:09;1.63;;;0.95;;
25952;SDS011;13750;50.804;8.764;2023-07-30T08:46:35;2.40;;;1.13;;
25952;SDS011;13750;50.804;8.764;2023-07-30T08:49:00;2.00;;;1.27;;
25952;SDS011;13750;50.804;8.764;2023-07-30T08:51:26;5.23;;;1.50;;
25952;SDS011;13750;50.804;8.764;2023-07-30T08:53:52;2.47;;;1.33;;
25952;SDS011;13750;50.804;8.764;2023-07-30T08:56:19;2.42;;;1.52;;
25952;SDS011;13750;50.804;8.764;2023-07-30T08:58:44;1.63;;;1.20;;
25952;SDS011;13750;50.804;8.764;2023-07-30T09:01:12;2.55;;;1.40;;
25952;SDS011;13750;50.804;8.764;2023-07-30T09:03:41;3.72;;;1.73;;
25952;SDS011;13750;50.804;8.764;2023-07-30T09:06:07;2.50;;;1.40;;
25952;SDS011;13750;50.804;8.764;2023-07-30T09:08:32;3.70;;;1.30;;
25952;SDS011;13750;50.804;8.764;2023-07-30T09:11:08;1.87;;;1.30;;
25952;SDS011;13750;50.804;8.764;2023-07-30T09:13:36;1.13;;;1.00;;
25952;SDS011;13750;50.804;8.764;2023-07-30T09:16:10;2.15;;;1.10;;
25952;SDS011;13750;50.804;8.764;2023-07-30T09:18:40;2.20;;;1.05;;
25952;SDS011;13750;50.804;8.764;2023-07-30T09:21:07;2.53;;;1.10;;
25952;SDS011;13750;50.804;8.764;2023-07-30T09:23:39;10.27;;;1.45;;
25952;SDS011;13750;50.804;8.764;2023-07-30T09:26:09;2.13;;;1.00;;
25952;SDS011;13750;50.804;8.764;2023-07-30T09:31:01;3.65;;;1.05;;
25952;SDS011;13750;50.804;8.764;2023-07-30T09:33:31;2.25;;;0.98;;
25952;SDS011;13750;50.804;8.764;2023-07-30T09:35:58;2.72;;;1.00;;
25952;SDS011;13750;50.804;8.764;2023-07-30T09:38:26;1.67;;;1.08;;
25952;SDS011;13750;50.804;8.764;2023-07-30T09:40:58;2.20;;;1.00;;
25952;SDS011;13750;50.804;8.764;2023-07-30T09:43:28;1.92;;;1.00;;
25952;SDS011;13750;50.804;8.764;2023-07-30T09:46:03;1.77;;;0.90;;
25952;SDS011;13750;50.804;8.764;2023-07-30T09:48:31;1.48;;;0.98;;
25952;SDS011;13750;50.804;8.764;2023-07-30T09:51:01;2.35;;;0.80;;
25952;SDS011;13750;50.804;8.764;2023-07-30T09:53:29;1.35;;;0.90;;
25952;SDS011;13750;50.804;8.764;2023-07-30T09:55:55;1.58;;;0.70;;
25952;SDS011;13750;50.804;8.764;2023-07-30T09:58:21;2.07;;;1.00;;
25952;SDS011;13750;50.804;8.764;2023-07-30T10:00:46;1.13;;;0.73;;
25952;SDS011;13750;50.804;8.764;2023-07-30T10:03:15;1.02;;;0.73;;
25952;SDS011;13750;50.804;8.764;2023-07-30T10:05:41;1.08;;;0.65;;
25952;SDS011;13750;50.804;8.764;2023-07-30T10:08:11;0.60;;;0.60;;
25952;SDS011;13750;50.804;8.764;2023-07-30T10:10:41;0.88;;;0.65;;
25952;SDS011;13750;50.804;8.764;2023-07-30T10:13:08;1.08;;;0.70;;
25952;SDS011;13750;50.804;8.764;2023-07-30T10:15:37;0.70;;;0.70;;
25952;SDS011;13750;50.804;8.764;2023-07-30T10:18:03;1.42;;;0.80;;
25952;SDS011;13750;50.804;8.764;2023-07-30T10:20:30;0.90;;;0.73;;
25952;SDS011;13750;50.804;8.764;2023-07-30T10:22:57;0.88;;;0.75;;
25952;SDS011;13750;50.804;8.764;2023-07-30T10:25:28;0.80;;;0.68;;
25952;SDS011;13750;50.804;8.764;2023-07-30T10:28:00;0.70;;;0.60;;
25952;SDS011;13750;50.804;8.764;2023-07-30T10:30:30;2.20;;;0.85;;
25952;SDS011;13750;50.804;8.764;2023-07-30T10:35:43;1.17;;;0.80;;
25952;SDS011;13750;50.804;8.764;2023-07-30T10:38:15;0.80;;;0.77;;
25952;SDS011;13750;50.804;8.764;2023-07-30T10:40:41;1.35;;;0.70;;
25952;SDS011;13750;50.804;8.764;2023-07-30T10:43:14;2.20;;;0.83;;
25952;SDS011;13750;50.804;8.764;2023-07-30T10:45:49;3.42;;;1.20;;
25952;SDS011;13750;50.804;8.764;2023-07-30T10:48:16;1.52;;;1.05;;
25952;SDS011;13750;50.804;8.764;2023-07-30T10:50:42;2.45;;;0.90;;
25952;SDS011;13750;50.804;8.764;2023-07-30T10:53:13;1.75;;;0.88;;
25952;SDS011;13750;50.804;8.764;2023-07-30T10:55:43;0.60;;;0.50;;
25952;SDS011;13750;50.804;8.764;2023-07-30T11:00:35;1.52;;;0.70;;
25952;SDS011;13750;50.804;8.764;2023-07-30T11:05:28;1.33;;;0.80;;
25952;SDS011;13750;50.804;8.764;2023-07-30T11:07:54;1.50;;;0.70;;
25952;SDS011;13750;50.804;8.764;2023-07-30T11:10:21;2.83;;;1.13;;
25952;SDS011;13750;50.804;8.764;2023-07-30T11:12:48;2.93;;;1.17;;
25952;SDS011;13750;50.804;8.764;2023-07-30T11:15:17;2.67;;;1.05;;
25952;SDS011;13750;50.804;8.764;2023-07-30T11:17:43;2.57;;;0.93;;
25952;SDS011;13750;50.804;8.764;2023-07-30T11:20:23;1.90;;;0.70;;
25952;SDS011;13750;50.804;8.764;2023-07-30T11:22:51;1.83;;;0.82;;
25952;SDS011;13750;50.804;8.764;2023-07-30T11:25:17;2.80;;;1.30;;
25952;SDS011;13750;50.804;8.764;2023-07-30T11:27:47;3.43;;;1.17;;
25952;SDS011;13750;50.804;8.764;2023-07-30T11:30:13;1.80;;;1.08;;
25952;SDS011;13750;50.804;8.764;2023-07-30T11:32:38;2.27;;;1.00;;
25952;SDS011;13750;50.804;8.764;2023-07-30T11:35:05;2.47;;;1.37;;
25952;SDS011;13750;50.804;8.764;2023-07-30T11:37:32;3.03;;;1.30;;
25952;SDS011;13750;50.804;8.764;2023-07-30T11:39:57;1.97;;;1.30;;
25952;SDS011;13750;50.804;8.764;2023-07-30T11:42:23;2.47;;;1.10;;
25952;SDS011;13750;50.804;8.764;2023-07-30T11:44:49;2.60;;;0.70;;
25952;SDS011;13750;50.804;8.764;2023-07-30T11:47:22;1.95;;;0.80;;
25952;SDS011;13750;50.804;8.764;2023-07-30T11:49:57;4.65;;;1.35;;
25952;SDS011;13750;50.804;8.764;2023-07-30T11:52:23;3.47;;;1.33;;
25952;SDS011;13750;50.804;8.764;2023-07-30T11:54:59;2.90;;;1.37;;
25952;SDS011;13750;50.804;8.764;2023-07-30T11:57:34;3.60;;;1.10;;
25952;SDS011;13750;50.804;8.764;2023-07-30T12:00:00;5.40;;;1.45;;
25952;SDS011;13750;50.804;8.764;2023-07-30T12:02:26;1.58;;;0.95;;
25952;SDS011;13750;50.804;8.764;2023-07-30T12:04:52;2.27;;;0.97;;
25952;SDS011;13750;50.804;8.764;2023-07-30T12:07:24;1.20;;;0.83;;
25952;SDS011;13750;50.804;8.764;2023-07-30T12:09:49;1.63;;;0.95;;
25952;SDS011;13750;50.804;8.764;2023-07-30T12:12:15;2.63;;;0.87;;
25952;SDS011;13750;50.804;8.764;2023-07-30T12:14:44;1.53;;;0.90;;
25952;SDS011;13750;50.804;8.764;2023-07-30T12:17:18;1.63;;;0.80;;
25952;SDS011;13750;50.804;8.764;2023-07-30T12:19:44;9.40;;;7.80;;
25952;SDS011;13750;50.804;8.764;2023-07-30T12:22:10;10.70;;;8.57;;
25952;SDS011;13750;50.804;8.764;2023-07-30T12:24:35;6.77;;;4.30;;
25952;SDS011;13750;50.804;8.764;2023-07-30T12:27:01;3.63;;;1.70;;
25952;SDS011;13750;50.804;8.764;2023-07-30T12:29:26;2.03;;;1.50;;
25952;SDS011;13750;50.804;8.764;2023-07-30T12:31:52;4.63;;;1.27;;
25952;SDS011;13750;50.804;8.764;2023-07-30T12:34:18;3.15;;;1.25;;
25952;SDS011;13750;50.804;8.764;2023-07-30T12:36:44;2.05;;;1.10;;
25952;SDS011;13750;50.804;8.764;2023-07-30T12:39:10;4.13;;;1.15;;
25952;SDS011;13750;50.804;8.764;2023-07-30T12:41:36;1.57;;;1.00;;
25952;SDS011;13750;50.804;8.764;2023-07-30T12:44:02;2.77;;;0.80;;
25952;SDS011;13750;50.804;8.764;2023-07-30T12:46:29;0.77;;;0.60;;
25952;SDS011;13750;50.804;8.764;2023-07-30T12:48:56;2.05;;;0.93;;
25952;SDS011;13750;50.804;8.764;2023-07-30T12:51:22;0.97;;;0.63;;
25952;SDS011;13750;50.804;8.764;2023-07-30T12:53:48;0.73;;;0.63;;
25952;SDS011;13750;50.804;8.764;2023-07-30T12:56:13;2.63;;;0.83;;
25952;SDS011;13750;50.804;8.764;2023-07-30T12:58:40;1.23;;;0.63;;
25952;SDS011;13750;50.804;8.764;2023-07-30T13:01:06;3.13;;;0.90;;
25952;SDS011;13750;50.804;8.764;2023-07-30T13:03:31;2.50;;;1.00;;
25952;SDS011;13750;50.804;8.764;2023-07-30T13:05:57;2.13;;;0.70;;
25952;SDS011;13750;50.804;8.764;2023-07-30T13:08:23;2.10;;;0.80;;
25952;SDS011;13750;50.804;8.764;2023-07-30T13:10:48;1.90;;;1.10;;
25952;SDS011;13750;50.804;8.764;2023-07-30T13:13:14;3.30;;;1.10;;
25952;SDS011;13750;50.804;8.764;2023-07-30T13:15:40;1.93;;;0.97;;
25952;SDS011;13750;50.804;8.764;2023-07-30T13:18:05;1.00;;;0.83;;
25952;SDS011;13750;50.804;8.764;2023-07-30T13:20:31;3.60;;;1.03;;
25952;SDS011;13750;50.804;8.764;2023-07-30T13:22:57;2.38;;;0.80;;
25952;SDS011;13750;50.804;8.764;2023-07-30T13:25:23;2.10;;;1.27;;
25952;SDS011;13750;50.804;8.764;2023-07-30T13:27:49;1.20;;;0.70;;
25952;SDS011;13750;50.804;8.764;2023-07-30T13:30:15;1.70;;;0.80;;
25952;SDS011;13750;50.804;8.764;2023-07-30T13:32:40;2.80;;;0.80;;
25952;SDS011;13750;50.804;8.764;2023-07-30T13:35:06;2.07;;;0.87;;
25952;SDS011;13750;50.804;8.764;2023-07-30T13:37:32;2.60;;;0.85;;
25952;SDS011;13750;50.804;8.764;2023-07-30T13:39:57;2.53;;;0.73;;
25952;SDS011;13750;50.804;8.764;2023-07-30T13:42:23;2.00;;;0.70;;
25952;SDS011;13750;50.804;8.764;2023-07-30T13:44:48;1.33;;;0.63;;
25952;SDS011;13750;50.804;8.764;2023-07-30T13:47:14;1.23;;;0.63;;
25952;SDS011;13750;50.804;8.764;2023-07-30T13:49:39;1.87;;;0.80;;
25952;SDS011;13750;50.804;8.764;2023-07-30T13:52:05;0.97;;;0.70;;
25952;SDS011;13750;50.804;8.764;2023-07-30T13:54:31;3.27;;;0.80;;
25952;SDS011;13750;50.804;8.764;2023-07-30T13:56:57;0.90;;;0.70;;
25952;SDS011;13750;50.804;8.764;2023-07-30T13:59:22;2.27;;;0.77;;
25952;SDS011;13750;50.804;8.764;2023-07-30T14:01:48;1.17;;;0.67;;
25952;SDS011;13750;50.804;8.764;2023-07-30T14:04:13;1.90;;;1.07;;
25952;SDS011;13750;50.804;8.764;2023-07-30T14:06:39;3.07;;;1.43;;
25952;SDS011;13750;50.804;8.764;2023-07-30T14:09:04;1.90;;;0.73;;
25952;SDS011;13750;50.804;8.764;2023-07-30T14:11:30;1.13;;;1.00;;
25952;SDS011;13750;50.804;8.764;2023-07-30T14:13:55;2.47;;;0.70;;
25952;SDS011;13750;50.804;8.764;2023-07-30T14:16:22;2.92;;;1.15;;
25952;SDS011;13750;50.804;8.764;2023-07-30T14:18:48;2.53;;;0.70;;
25952;SDS011;13750;50.804;8.764;2023-07-30T14:21:14;1.33;;;1.00;;
25952;SDS011;13750;50.804;8.764;2023-07-30T14:23:39;1.37;;;0.40;;
25952;SDS011;13750;50.804;8.764;2023-07-30T14:26:05;1.03;;;0.60;;
25952;SDS011;13750;50.804;8.764;2023-07-30T14:28:31;1.02;;;0.60;;
25952;SDS011;13750;50.804;8.764;2023-07-30T14:30:57;1.93;;;0.83;;
25952;SDS011;13750;50.804;8.764;2023-07-30T14:33:22;1.70;;;0.70;;
25952;SDS011;13750;50.804;8.764;2023-07-30T14:35:48;1.63;;;0.57;;
25952;SDS011;13750;50.804;8.764;2023-07-30T14:38:14;1.50;;;0.80;;
25952;SDS011;13750;50.804;8.764;2023-07-30T14:40:39;2.00;;;0.80;;
25952;SDS011;13750;50.804;8.764;2023-07-30T14:43:07;3.35;;;1.00;;
25952;SDS011;13750;50.804;8.764;2023-07-30T14:45:32;2.47;;;0.73;;
25952;SDS011;13750;50.804;8.764;2023-07-30T14:47:58;2.73;;;0.80;;
25952;SDS011;13750;50.804;8.764;2023-07-30T14:50:23;2.37;;;0.73;;
25952;SDS011;13750;50.804;8.764;2023-07-30T14:52:49;2.03;;;0.70;;
25952;SDS011;13750;50.804;8.764;2023-07-30T14:55:14;1.57;;;0.60;;
25952;SDS011;13750;50.804;8.764;2023-07-30T14:57:40;2.27;;;0.63;;
25952;SDS011;13750;50.804;8.764;2023-07-30T15:00:06;1.60;;;0.60;;
25952;SDS011;13750;50.804;8.764;2023-07-30T15:02:36;1.00;;;0.52;;